CYKQ

Waskaganish Airport

ICAO Code CYKQ
IATA Code YKQ
Name Waskaganish Airport
Location Waskaganish, Quebec, CA
Elevation 79 Feet / 24.1 Meters
Latitude 51.47333333
Longitude -78.75833333
METAR CYKQ 182100Z 30006KT 15SM FEW079 FEW250 29/10 A2982 RMK CU1CI1 CU TR CI TR LAST STFD OBS/NEXT 191300UTC SLP099 DENSITY ALT 1800FT
Extra information Display NOTAMS
Display Charts
Runway Length Width Surface Elevation
06 3511 ft 100 ft GRAVEL 78 ft
24 3511 ft 100 ft GRAVEL 77 ft